createdAt,value
2019-02-25T00:01:10.950Z,2.43
2019-02-25T00:03:39.645Z,2.40
2019-02-25T00:06:07.923Z,2.57
2019-02-25T00:09:07.357Z,2.53
2019-02-25T00:11:35.655Z,2.30
2019-02-25T00:14:03.978Z,2.13
2019-02-25T00:16:31.904Z,2.23
2019-02-25T00:19:00.042Z,1.97
2019-02-25T00:21:27.935Z,1.93
2019-02-25T00:23:56.183Z,2.20
2019-02-25T00:26:24.466Z,1.90
2019-02-25T00:28:52.332Z,1.53
2019-02-25T00:31:20.921Z,1.50
2019-02-25T00:33:48.702Z,1.30
2019-02-25T00:36:16.317Z,1.90
2019-02-25T00:38:43.873Z,1.57
2019-02-25T00:41:12.523Z,1.30
2019-02-25T00:43:40.434Z,1.70
2019-02-25T00:46:08.883Z,1.30
2019-02-25T00:48:37.461Z,1.43
2019-02-25T00:51:06.096Z,1.50
2019-02-25T00:53:34.222Z,1.60
2019-02-25T00:56:01.804Z,1.47
2019-02-25T00:58:30.083Z,1.40
2019-02-25T01:00:58.379Z,1.47
2019-02-25T01:03:25.965Z,1.40
2019-02-25T01:05:54.288Z,1.50
2019-02-25T01:08:22.195Z,1.20
2019-02-25T01:10:49.720Z,1.33
2019-02-25T01:13:17.367Z,1.80
2019-02-25T01:15:45.909Z,1.40
2019-02-25T01:18:14.512Z,1.20
2019-02-25T01:20:43.188Z,1.63
2019-02-25T01:23:11.589Z,1.47
2019-02-25T01:25:40.275Z,1.57
2019-02-25T01:28:08.545Z,1.37
2019-02-25T01:30:36.419Z,1.23
2019-02-25T01:33:04.680Z,1.57
2019-02-25T01:35:32.480Z,1.70
2019-02-25T01:38:01.115Z,1.67
2019-02-25T01:40:29.345Z,1.50
2019-02-25T01:42:57.931Z,1.50
2019-02-25T01:45:25.808Z,1.40
2019-02-25T01:47:54.086Z,1.50
2019-02-25T01:50:22.257Z,1.30
2019-02-25T01:52:50.855Z,1.60
2019-02-25T01:55:19.652Z,1.60
2019-02-25T01:57:47.871Z,1.67
2019-02-25T02:00:16.309Z,1.50
2019-02-25T02:02:44.533Z,1.60
2019-02-25T02:05:12.675Z,1.70
2019-02-25T02:07:40.974Z,1.60
2019-02-25T02:10:10.479Z,1.60
2019-02-25T02:12:39.058Z,1.50
2019-02-25T02:15:09.794Z,1.83
2019-02-25T02:17:37.668Z,1.60
2019-02-25T02:20:06.594Z,1.63
2019-02-25T02:22:35.149Z,1.70
2019-02-25T02:25:03.127Z,1.50
2019-02-25T02:27:30.913Z,1.62
2019-02-25T02:29:58.727Z,1.80
2019-02-25T02:32:27.289Z,1.63
2019-02-25T02:34:55.891Z,1.73
2019-02-25T02:37:23.708Z,1.80
2019-02-25T02:39:51.632Z,2.00
2019-02-25T02:42:39.831Z,1.60
2019-02-25T02:45:30.255Z,1.50
2019-02-25T02:48:36.917Z,1.87
2019-02-25T02:51:24.174Z,1.90
2019-02-25T02:53:52.367Z,1.80
2019-02-25T02:56:20.666Z,1.40
2019-02-25T02:58:49.251Z,1.47
2019-02-25T03:01:17.524Z,1.80
2019-02-25T03:03:45.394Z,1.40
2019-02-25T03:06:14.095Z,1.47
2019-02-25T03:08:42.770Z,1.30
2019-02-25T03:11:10.604Z,1.30
2019-02-25T03:13:38.429Z,1.30
2019-02-25T03:16:06.691Z,1.40
2019-02-25T03:18:35.305Z,1.47
2019-02-25T03:21:03.888Z,1.30
2019-02-25T03:23:32.411Z,1.40
2019-02-25T03:26:01.066Z,1.40
2019-02-25T03:28:29.131Z,1.63
2019-02-25T03:30:57.414Z,1.60
2019-02-25T03:33:24.996Z,1.40
2019-02-25T03:35:53.305Z,1.30
2019-02-25T03:38:21.661Z,1.30
2019-02-25T03:40:49.512Z,1.50
2019-02-25T03:43:17.618Z,1.40
2019-02-25T03:45:46.092Z,1.23
2019-02-25T03:48:14.348Z,1.43
2019-02-25T03:50:42.593Z,1.23
2019-02-25T03:53:10.425Z,1.40
2019-02-25T03:55:38.631Z,1.40
2019-02-25T03:58:06.989Z,1.40
2019-02-25T04:00:35.495Z,1.47
2019-02-25T04:03:03.850Z,1.10
2019-02-25T04:05:32.372Z,1.10
2019-02-25T04:08:00.615Z,1.60
2019-02-25T04:10:29.135Z,1.30
2019-02-25T04:12:57.801Z,1.50
2019-02-25T04:15:31.283Z,1.47
2019-02-25T04:17:59.222Z,1.77
2019-02-25T04:20:27.464Z,1.40
2019-02-25T04:22:55.709Z,1.60
2019-02-25T04:25:24.026Z,1.70
2019-02-25T04:27:52.165Z,1.70
2019-02-25T04:30:20.793Z,1.60
2019-02-25T04:32:48.986Z,1.77
2019-02-25T04:35:17.359Z,1.47
2019-02-25T04:37:45.652Z,1.53
2019-02-25T04:40:13.927Z,2.23
2019-02-25T04:42:42.247Z,1.63
2019-02-25T04:45:12.861Z,2.03
2019-02-25T04:47:41.148Z,1.87
2019-02-25T04:50:09.827Z,1.80
2019-02-25T04:52:37.754Z,1.60
2019-02-25T04:55:05.758Z,1.80
2019-02-25T04:57:33.645Z,2.00
2019-02-25T05:00:01.816Z,2.10
2019-02-25T05:02:30.346Z,1.93
2019-02-25T05:04:58.265Z,1.80
2019-02-25T05:07:26.144Z,1.90
2019-02-25T05:09:54.737Z,1.60
2019-02-25T05:12:22.884Z,2.10
2019-02-25T05:14:51.085Z,2.20
2019-02-25T05:17:19.384Z,2.27
2019-02-25T05:19:47.998Z,2.20
2019-02-25T05:22:16.754Z,2.10
2019-02-25T05:24:45.057Z,2.20
2019-02-25T05:27:13.266Z,2.00
2019-02-25T05:29:41.911Z,2.20
2019-02-25T05:32:10.171Z,1.97
2019-02-25T05:34:38.393Z,2.00
2019-02-25T05:37:06.956Z,2.20
2019-02-25T05:39:35.561Z,2.70
2019-02-25T05:42:03.826Z,2.53
2019-02-25T05:44:32.322Z,2.20
2019-02-25T05:47:00.915Z,2.60
2019-02-25T05:49:29.090Z,2.47
2019-02-25T05:51:57.636Z,2.30
2019-02-25T05:54:25.450Z,2.50
2019-02-25T05:56:53.691Z,2.13
2019-02-25T05:59:21.597Z,2.53
2019-02-25T06:01:49.366Z,2.27
2019-02-25T06:04:17.653Z,2.20
2019-02-25T06:06:46.239Z,2.37
2019-02-25T06:09:14.126Z,2.20
2019-02-25T06:11:42.409Z,2.57
2019-02-25T06:14:10.614Z,2.07
2019-02-25T06:16:38.455Z,2.27
2019-02-25T06:19:07.034Z,2.73
2019-02-25T06:21:35.735Z,2.20
2019-02-25T06:24:04.317Z,2.77
2019-02-25T06:26:32.191Z,2.60
2019-02-25T06:29:00.740Z,2.03
2019-02-25T06:31:29.259Z,2.30
2019-02-25T06:33:57.550Z,2.33
2019-02-25T06:36:25.841Z,2.40
2019-02-25T06:38:54.496Z,2.50
2019-02-25T06:41:22.715Z,2.63
2019-02-25T06:43:51.290Z,2.33
2019-02-25T06:46:19.973Z,2.20
2019-02-25T06:48:47.857Z,2.30
2019-02-25T06:51:16.181Z,2.30
2019-02-25T06:53:44.391Z,2.90
2019-02-25T06:56:12.590Z,2.40
2019-02-25T06:58:41.207Z,3.53
2019-02-25T07:01:09.081Z,2.33
2019-02-25T07:03:37.358Z,2.20
2019-02-25T07:06:24.680Z,2.20
2019-02-25T07:09:12.084Z,2.20
2019-02-25T07:11:59.800Z,2.30
2019-02-25T07:14:47.540Z,2.43
2019-02-25T07:17:34.927Z,1.87
2019-02-25T07:20:09.432Z,2.10
2019-02-25T07:23:16.259Z,2.33
2019-02-25T07:26:03.782Z,2.10
2019-02-25T07:28:51.069Z,2.13
2019-02-25T07:31:38.186Z,2.00
2019-02-25T07:34:25.651Z,1.83
2019-02-25T07:37:13.412Z,2.57
2019-02-25T07:40:00.379Z,2.17
2019-02-25T07:42:38.142Z,2.33
2019-02-25T07:45:28.481Z,2.90
2019-02-25T07:48:36.700Z,2.33
2019-02-25T07:51:24.227Z,3.03
2019-02-25T07:53:59.179Z,2.23
2019-02-25T07:56:35.034Z,2.90
2019-02-25T07:59:22.098Z,2.10
2019-02-25T08:02:09.684Z,1.83
2019-02-25T08:04:57.460Z,2.50
2019-02-25T08:07:44.614Z,2.30
2019-02-25T08:10:32.396Z,3.20
2019-02-25T08:16:21.687Z,2.77
2019-02-25T08:19:09.061Z,2.70
2019-02-25T08:24:49.492Z,1.90
2019-02-25T08:27:49.018Z,2.40
2019-02-25T08:30:48.138Z,2.10
2019-02-25T08:33:36.070Z,2.33
2019-02-25T08:37:02.755Z,2.30
2019-02-25T08:40:11.695Z,2.37
2019-02-25T08:42:57.675Z,6.23
2019-02-25T08:45:45.081Z,17.40
2019-02-25T08:48:17.798Z,4.80
2019-02-25T08:50:46.256Z,2.57
2019-02-25T08:55:54.715Z,25.20
2019-02-25T08:58:22.887Z,63.50
2019-02-25T09:00:51.168Z,106.37
2019-02-25T09:03:19.791Z,85.93
2019-02-25T09:05:48.558Z,60.30
2019-02-25T09:08:16.832Z,42.43
2019-02-25T09:10:44.395Z,40.30
2019-02-25T09:13:13.089Z,40.17
2019-02-25T09:15:41.385Z,26.50
2019-02-25T09:18:49.784Z,33.07
2019-02-25T09:21:18.334Z,25.70
2019-02-25T09:23:46.852Z,9.80
2019-02-25T09:26:15.077Z,10.83
2019-02-25T09:28:43.649Z,12.80
2019-02-25T09:31:12.110Z,14.23
2019-02-25T09:33:40.398Z,11.37
2019-02-25T09:36:08.981Z,7.17
2019-02-25T09:38:37.263Z,10.70
2019-02-25T09:41:05.542Z,6.83
2019-02-25T09:43:34.127Z,9.17
2019-02-25T09:46:02.671Z,8.97
2019-02-25T09:48:30.949Z,8.03
2019-02-25T09:50:59.631Z,6.33
2019-02-25T09:56:29.816Z,4.90
2019-02-25T09:58:57.686Z,3.83
2019-02-25T10:01:25.923Z,3.73
2019-02-25T10:03:54.246Z,3.83
2019-02-25T10:06:22.131Z,3.90
2019-02-25T10:08:50.776Z,4.37
2019-02-25T10:11:19.030Z,3.90
2019-02-25T10:13:47.697Z,3.30
2019-02-25T10:16:16.076Z,3.43
2019-02-25T10:18:44.370Z,3.90
2019-02-25T10:21:12.950Z,2.93
2019-02-25T10:23:40.617Z,3.60
2019-02-25T10:26:09.042Z,3.97
2019-02-25T10:28:36.876Z,4.00
2019-02-25T10:31:04.455Z,3.70
2019-02-25T10:33:32.665Z,3.77
2019-02-25T10:36:00.922Z,3.60
2019-02-25T10:38:29.589Z,3.70
2019-02-25T10:40:59.363Z,3.07
2019-02-25T10:43:36.525Z,2.80
2019-02-25T10:46:51.552Z,2.80
2019-02-25T10:49:20.068Z,3.47
2019-02-25T10:51:48.418Z,3.33
2019-02-25T10:54:17.075Z,3.53
2019-02-25T10:57:14.491Z,2.83
2019-02-25T10:59:42.772Z,3.27
2019-02-25T11:02:13.172Z,3.10
2019-02-25T11:04:41.842Z,3.00
2019-02-25T11:07:10.342Z,3.10
2019-02-25T11:09:57.850Z,3.03
2019-02-25T11:12:27.819Z,3.20
2019-02-25T11:14:56.451Z,4.00
2019-02-25T11:17:24.648Z,4.20
2019-02-25T11:19:54.973Z,4.07
2019-02-25T11:22:28.882Z,3.70
2019-02-25T11:24:57.732Z,3.20
2019-02-25T11:27:35.353Z,3.63
2019-02-25T11:30:16.588Z,7.83
2019-02-25T11:36:05.536Z,6.07
2019-02-25T11:38:37.087Z,6.77
2019-02-25T11:53:15.200Z,4.60
2019-02-25T11:56:23.523Z,3.63
2019-02-25T12:01:52.355Z,3.40
2019-02-25T12:05:00.556Z,3.47
2019-02-25T12:07:28.826Z,3.67
2019-02-25T12:10:37.462Z,3.10
2019-02-25T12:16:07.184Z,3.10
2019-02-25T12:21:44.528Z,2.80
2019-02-25T12:24:52.821Z,3.00
2019-02-25T12:33:35.369Z,2.83
2019-02-25T12:36:03.709Z,2.93
2019-02-25T12:38:32.274Z,2.63
2019-02-25T12:41:01.064Z,2.10
2019-02-25T12:47:09.457Z,2.47
2019-02-25T12:49:56.991Z,2.57
2019-02-25T12:55:38.079Z,2.57
2019-02-25T12:58:37.391Z,2.10
2019-02-25T13:01:24.681Z,2.63
2019-02-25T13:04:33.374Z,2.43
2019-02-25T13:07:01.234Z,2.30
2019-02-25T13:09:29.632Z,2.10
2019-02-25T13:11:57.493Z,2.30
2019-02-25T13:14:26.056Z,2.70
2019-02-25T13:16:54.066Z,2.30
2019-02-25T13:19:22.355Z,2.50
2019-02-25T13:25:13.264Z,2.07
2019-02-25T13:27:48.721Z,2.00
2019-02-25T13:30:35.983Z,2.40
2019-02-25T13:33:04.498Z,2.17
2019-02-25T13:35:44.391Z,2.00
2019-02-25T13:38:12.858Z,1.90
2019-02-25T13:40:41.015Z,2.10
2019-02-25T13:43:09.051Z,1.70
2019-02-25T13:45:36.986Z,1.73
2019-02-25T13:48:05.567Z,1.80
2019-02-25T13:50:33.126Z,2.20
2019-02-25T13:56:21.739Z,1.90
2019-02-25T13:59:30.343Z,2.20
2019-02-25T14:02:10.393Z,2.10
2019-02-25T14:07:39.940Z,2.27
2019-02-25T14:10:20.503Z,2.23
2019-02-25T14:12:48.395Z,2.20
2019-02-25T14:18:29.409Z,3.60
2019-02-25T14:21:38.067Z,2.80
2019-02-25T14:27:29.594Z,2.60
2019-02-25T14:30:45.003Z,2.50
2019-02-25T14:33:14.444Z,2.20
2019-02-25T14:35:53.100Z,2.20
2019-02-25T14:38:29.919Z,2.37
2019-02-25T14:41:46.523Z,2.73
2019-02-25T14:47:46.965Z,2.07
2019-02-25T14:50:35.804Z,2.23
2019-02-25T14:53:54.741Z,1.80
2019-02-25T15:02:31.210Z,1.90
2019-02-25T15:08:21.519Z,1.70
2019-02-25T15:10:50.524Z,1.80
2019-02-25T15:13:19.699Z,1.80
2019-02-25T15:16:06.920Z,1.67
2019-02-25T15:19:15.512Z,1.70
2019-02-25T15:32:02.714Z,2.03
2019-02-25T15:37:36.625Z,2.90
2019-02-25T15:40:45.954Z,2.50
2019-02-25T15:43:45.709Z,2.33
2019-02-25T15:49:25.643Z,2.50
2019-02-25T15:58:16.093Z,2.10
2019-02-25T16:03:56.498Z,2.10
2019-02-25T16:06:31.755Z,4.90
2019-02-25T16:12:40.955Z,2.67
2019-02-25T16:15:29.132Z,1.83
2019-02-25T16:18:44.294Z,3.00
2019-02-25T16:21:43.942Z,3.97
2019-02-25T16:30:13.222Z,3.37
2019-02-25T16:33:23.750Z,3.07
2019-02-25T16:36:03.996Z,3.23
2019-02-25T16:42:05.251Z,5.43
2019-02-25T16:44:33.681Z,4.77
2019-02-25T16:50:23.252Z,4.13
2019-02-25T16:53:05.942Z,3.50
2019-02-25T16:58:40.449Z,4.47
2019-02-25T17:04:11.878Z,5.60
2019-02-25T17:10:01.398Z,7.10
2019-02-25T17:12:37.526Z,16.00
2019-02-25T17:18:26.736Z,17.03
2019-02-25T17:20:54.907Z,22.03
2019-02-25T17:23:25.127Z,22.67
2019-02-25T17:26:02.031Z,21.03
2019-02-25T17:28:29.938Z,22.33
2019-02-25T17:30:58.258Z,21.17
2019-02-25T17:33:28.219Z,22.53
2019-02-25T17:38:58.723Z,18.67
2019-02-25T17:41:39.919Z,17.03
2019-02-25T17:47:24.496Z,13.07
2019-02-25T17:52:50.161Z,11.80
2019-02-25T17:55:59.882Z,14.17
2019-02-25T17:58:38.093Z,12.90
2019-02-25T18:01:56.214Z,11.33
2019-02-25T18:04:26.549Z,10.43
2019-02-25T18:06:55.369Z,12.43
2019-02-25T18:09:24.840Z,15.07
2019-02-25T18:11:53.200Z,17.87
2019-02-25T18:14:21.466Z,15.63
2019-02-25T18:16:51.272Z,11.67
2019-02-25T18:19:20.860Z,11.20
2019-02-25T18:21:58.164Z,11.17
2019-02-25T18:24:32.968Z,12.23
2019-02-25T18:27:00.575Z,9.00
2019-02-25T18:29:28.818Z,7.47
2019-02-25T18:32:06.029Z,6.07
2019-02-25T18:34:44.319Z,6.63
2019-02-25T18:37:13.476Z,6.50
2019-02-25T18:39:50.067Z,9.33
2019-02-25T18:42:26.065Z,7.90
2019-02-25T18:44:54.462Z,6.57
2019-02-25T18:47:25.027Z,7.07
2019-02-25T18:49:53.976Z,7.00
2019-02-25T18:52:29.660Z,6.40
2019-02-25T18:55:06.738Z,6.20
2019-02-25T18:58:22.227Z,6.23
2019-02-25T19:04:11.140Z,4.10
2019-02-25T19:06:47.836Z,3.93
2019-02-25T19:09:23.175Z,4.47
2019-02-25T19:11:58.989Z,4.73
2019-02-25T19:14:28.875Z,4.93
2019-02-25T19:17:06.398Z,6.67
2019-02-25T19:20:21.582Z,6.50
2019-02-25T19:23:02.819Z,7.50
2019-02-25T19:28:45.921Z,8.97
2019-02-25T19:31:14.151Z,10.93
2019-02-25T19:33:42.749Z,11.30
2019-02-25T19:36:11.583Z,13.00
2019-02-25T19:38:41.848Z,12.87
2019-02-25T19:41:17.750Z,10.90
2019-02-25T19:43:47.422Z,9.30
2019-02-25T19:46:16.231Z,8.40
2019-02-25T19:48:47.021Z,8.20
2019-02-25T19:51:23.062Z,8.67
2019-02-25T19:53:59.829Z,8.87
2019-02-25T19:56:35.712Z,10.60
2019-02-25T19:59:05.657Z,13.20
2019-02-25T20:01:40.908Z,13.00
2019-02-25T20:04:11.480Z,13.03
2019-02-25T20:10:19.262Z,11.60
2019-02-25T20:16:15.825Z,12.40
2019-02-25T20:18:42.022Z,10.83
2019-02-25T20:21:22.545Z,10.63
2019-02-25T20:23:53.829Z,11.23
2019-02-25T20:26:28.775Z,12.80
2019-02-25T20:31:59.694Z,11.97
2019-02-25T20:34:29.710Z,11.10
2019-02-25T20:36:59.922Z,11.47
2019-02-25T20:40:17.137Z,10.40
2019-02-25T20:42:56.097Z,9.07
2019-02-25T20:45:32.640Z,8.77
2019-02-25T20:48:01.963Z,8.87
2019-02-25T20:51:22.711Z,8.27
2019-02-25T20:54:01.189Z,7.90
2019-02-25T20:56:30.911Z,7.27
2019-02-25T20:59:07.587Z,8.23
2019-02-25T21:02:16.776Z,8.00
2019-02-25T21:08:08.819Z,7.07
2019-02-25T21:10:36.870Z,10.20
2019-02-25T21:13:05.432Z,9.77
2019-02-25T21:15:35.729Z,10.40
2019-02-25T21:18:51.258Z,13.73
2019-02-25T21:21:30.762Z,24.80
2019-02-25T21:24:06.783Z,25.93
2019-02-25T21:30:04.366Z,25.17
2019-02-25T21:32:47.134Z,28.00
2019-02-25T21:35:27.612Z,28.73
2019-02-25T21:38:41.038Z,26.87
2019-02-25T21:41:11.173Z,25.33
2019-02-25T21:43:49.332Z,27.43
2019-02-25T21:52:46.150Z,21.63
2019-02-25T21:55:23.839Z,20.10
2019-02-25T21:58:30.448Z,17.47
2019-02-25T22:01:18.308Z,15.40
2019-02-25T22:03:48.712Z,15.87
2019-02-25T22:06:20.028Z,15.23
2019-02-25T22:12:21.997Z,13.00
2019-02-25T22:15:10.820Z,14.00
2019-02-25T22:17:53.019Z,13.83
2019-02-25T22:21:09.484Z,15.13
2019-02-25T22:23:43.517Z,16.67
2019-02-25T22:26:12.651Z,17.87
2019-02-25T22:32:03.943Z,12.87
2019-02-25T22:35:00.556Z,11.30
2019-02-25T22:37:49.664Z,10.13
2019-02-25T22:40:38.827Z,9.53
2019-02-25T22:43:59.957Z,10.83
2019-02-25T22:46:57.526Z,11.37
2019-02-25T22:49:45.432Z,11.47
2019-02-25T22:52:34.774Z,11.90
2019-02-25T22:55:54.738Z,11.90
2019-02-25T22:58:31.595Z,10.37
2019-02-25T23:07:50.217Z,12.17
2019-02-25T23:10:29.805Z,11.10
2019-02-25T23:12:58.513Z,12.10
2019-02-25T23:15:30.153Z,13.83
2019-02-25T23:18:25.853Z,14.40
2019-02-25T23:21:03.360Z,14.53
2019-02-25T23:24:12.027Z,11.53
2019-02-25T23:30:00.431Z,9.87
2019-02-25T23:33:11.785Z,9.07
2019-02-25T23:35:49.191Z,8.97
2019-02-25T23:38:18.858Z,9.53
2019-02-25T23:40:47.218Z,7.07
2019-02-25T23:43:16.727Z,8.13
2019-02-25T23:45:46.406Z,6.90
2019-02-25T23:48:21.712Z,8.10
2019-02-25T23:50:50.310Z,7.77
2019-02-25T23:53:31.089Z,8.27
2019-02-25T23:56:00.369Z,7.37
2019-02-25T23:58:28.637Z,8.40
